createdAt,value
2018-06-04T00:02:27.329Z,17.00
2018-06-04T00:04:55.945Z,16.90
2018-06-04T00:07:24.599Z,16.90
2018-06-04T00:09:53.299Z,16.80
2018-06-04T00:12:22.023Z,16.80
2018-06-04T00:14:50.634Z,16.80
2018-06-04T00:17:19.211Z,16.80
2018-06-04T00:19:47.839Z,16.80
2018-06-04T00:22:16.471Z,16.80
2018-06-04T00:24:45.087Z,16.80
2018-06-04T00:27:13.750Z,16.70
2018-06-04T00:29:42.611Z,16.70
2018-06-04T00:32:11.221Z,16.60
2018-06-04T00:34:39.855Z,16.60
2018-06-04T00:37:08.521Z,16.60
2018-06-04T00:39:37.172Z,16.50
2018-06-04T00:42:05.871Z,16.50
2018-06-04T00:44:34.480Z,16.40
2018-06-04T00:47:03.102Z,16.40
2018-06-04T00:49:31.782Z,16.40
2018-06-04T00:52:00.561Z,16.30
2018-06-04T00:54:29.250Z,16.30
2018-06-04T00:56:57.856Z,16.30
2018-06-04T00:59:26.526Z,16.30
2018-06-04T01:01:55.192Z,16.30
2018-06-04T01:04:23.729Z,16.30
2018-06-04T01:06:52.320Z,16.30
2018-06-04T01:09:20.921Z,16.30
2018-06-04T01:11:49.557Z,16.20
2018-06-04T01:14:18.177Z,16.00
2018-06-04T01:16:46.799Z,16.00
2018-06-04T01:19:15.421Z,15.90
2018-06-04T01:21:44.090Z,15.90
2018-06-04T01:24:12.772Z,15.90
2018-06-04T01:26:41.417Z,16.00
2018-06-04T01:29:10.151Z,16.00
2018-06-04T01:31:38.845Z,15.90
2018-06-04T01:34:07.520Z,15.90
2018-06-04T01:36:36.216Z,15.90
2018-06-04T01:39:07.859Z,15.90
2018-06-04T01:41:36.719Z,15.80
2018-06-04T01:44:05.566Z,15.80
2018-06-04T01:46:34.185Z,15.80
2018-06-04T01:49:02.806Z,15.80
2018-06-04T01:51:31.601Z,15.80
2018-06-04T01:54:00.292Z,15.70
2018-06-04T01:56:29.001Z,15.60
2018-06-04T01:58:57.654Z,15.60
2018-06-04T02:01:26.280Z,15.60
2018-06-04T02:03:54.903Z,15.50
2018-06-04T02:06:23.640Z,15.50
2018-06-04T02:08:52.263Z,15.50
2018-06-04T02:11:20.960Z,15.60
2018-06-04T02:13:49.727Z,15.60
2018-06-04T02:16:18.419Z,15.50
2018-06-04T02:18:47.113Z,15.40
2018-06-04T02:21:15.835Z,15.40
2018-06-04T02:23:44.483Z,15.40
2018-06-04T02:26:13.200Z,15.40
2018-06-04T02:28:41.830Z,15.50
2018-06-04T02:31:10.567Z,15.40
2018-06-04T02:33:39.233Z,15.40
2018-06-04T02:36:07.882Z,15.30
2018-06-04T02:38:36.556Z,15.30
2018-06-04T02:41:05.342Z,15.30
2018-06-04T02:43:33.986Z,15.30
2018-06-04T02:46:02.661Z,15.40
2018-06-04T02:48:31.337Z,15.40
2018-06-04T02:51:00.033Z,15.40
2018-06-04T02:53:28.712Z,15.30
2018-06-04T02:56:02.938Z,15.20
2018-06-04T02:58:31.613Z,15.20
2018-06-04T03:01:00.303Z,15.20
2018-06-04T03:03:28.978Z,15.20
2018-06-04T03:05:57.645Z,15.20
2018-06-04T03:08:26.357Z,15.20
2018-06-04T03:10:55.190Z,15.20
2018-06-04T03:13:23.801Z,15.10
2018-06-04T03:15:52.573Z,15.10
2018-06-04T03:18:21.277Z,15.10
2018-06-04T03:20:49.970Z,15.10
2018-06-04T03:23:18.568Z,15.00
2018-06-04T03:25:47.193Z,14.90
2018-06-04T03:28:15.894Z,14.90
2018-06-04T03:30:44.478Z,14.90
2018-06-04T03:33:13.084Z,14.90
2018-06-04T03:35:41.861Z,15.00
2018-06-04T03:38:10.527Z,14.90
2018-06-04T03:40:39.143Z,14.80
2018-06-04T03:43:07.799Z,14.70
2018-06-04T03:45:36.531Z,14.80
2018-06-04T03:48:05.374Z,14.80
2018-06-04T03:50:33.956Z,14.90
2018-06-04T03:53:02.631Z,14.90
2018-06-04T03:55:31.317Z,15.00
2018-06-04T03:58:00.043Z,15.00
2018-06-04T04:00:28.631Z,15.00
2018-06-04T04:02:57.383Z,15.00
2018-06-04T04:05:26.204Z,15.00
2018-06-04T04:07:54.904Z,15.00
2018-06-04T04:10:23.654Z,15.00
2018-06-04T04:12:52.320Z,15.00
2018-06-04T04:15:21.019Z,15.00
2018-06-04T04:17:50.703Z,15.10
2018-06-04T04:20:19.433Z,15.10
2018-06-04T04:22:48.255Z,15.10
2018-06-04T04:25:16.899Z,15.10
2018-06-04T04:27:45.577Z,15.10
2018-06-04T04:30:14.252Z,15.20
2018-06-04T04:32:42.974Z,15.20
2018-06-04T04:35:11.655Z,15.30
2018-06-04T04:37:40.441Z,15.40
2018-06-04T04:40:09.150Z,15.40
2018-06-04T04:42:37.750Z,15.50
2018-06-04T04:45:06.643Z,15.50
2018-06-04T04:47:35.400Z,15.60
2018-06-04T04:50:04.122Z,15.60
2018-06-04T04:52:32.807Z,15.70
2018-06-04T04:55:01.509Z,15.70
2018-06-04T04:57:30.288Z,15.70
2018-06-04T04:59:58.923Z,15.70
2018-06-04T05:02:27.614Z,15.70
2018-06-04T05:04:56.260Z,15.80
2018-06-04T05:07:25.175Z,15.90
2018-06-04T05:09:53.850Z,16.00
2018-06-04T05:12:22.529Z,16.10
2018-06-04T05:14:51.164Z,16.30
2018-06-04T05:17:19.764Z,16.50
2018-06-04T05:19:48.449Z,16.50
2018-06-04T05:22:17.065Z,16.50
2018-06-04T05:24:45.590Z,16.60
2018-06-04T05:27:14.261Z,16.70
2018-06-04T05:29:42.821Z,16.80
2018-06-04T05:32:11.456Z,16.90
2018-06-04T05:34:40.196Z,17.00
2018-06-04T05:37:08.886Z,17.10
2018-06-04T05:39:37.500Z,17.20
2018-06-04T05:42:06.133Z,17.30
2018-06-04T05:44:34.791Z,17.40
2018-06-04T05:47:03.472Z,17.40
2018-06-04T05:49:32.125Z,17.50
2018-06-04T05:52:00.779Z,17.50
2018-06-04T05:54:29.553Z,17.60
2018-06-04T05:59:26.591Z,17.90
2018-06-04T06:01:55.286Z,18.10
2018-06-04T06:04:23.958Z,18.20
2018-06-04T06:06:52.643Z,18.40
2018-06-04T06:09:21.319Z,18.50
2018-06-04T06:11:49.978Z,18.60
2018-06-04T06:14:18.716Z,18.70
2018-06-04T06:16:47.384Z,18.80
2018-06-04T06:19:16.085Z,19.00
2018-06-04T06:21:45.056Z,19.10
2018-06-04T06:24:14.185Z,19.30
2018-06-04T06:26:49.292Z,19.40
2018-06-04T06:29:18.697Z,19.40
2018-06-04T06:31:49.342Z,19.40
2018-06-04T06:34:21.457Z,19.50
2018-06-04T06:36:50.582Z,19.40
2018-06-04T06:39:19.270Z,19.50
2018-06-04T06:41:49.319Z,19.60
2018-06-04T06:44:23.784Z,19.60
2018-06-04T06:46:52.588Z,19.80
2018-06-04T06:49:21.275Z,19.90
2018-06-04T06:51:49.978Z,20.00
2018-06-04T06:54:27.320Z,20.10
2018-06-04T06:56:57.068Z,20.20
2018-06-04T06:59:25.814Z,20.40
2018-06-04T07:01:54.575Z,20.70
2018-06-04T07:04:23.320Z,21.00
2018-06-04T07:06:54.139Z,21.30
2018-06-04T07:09:22.836Z,21.40
2018-06-04T07:11:51.555Z,21.40
2018-06-04T07:14:20.325Z,21.60
2018-06-04T07:16:52.229Z,21.90
2018-06-04T07:19:20.823Z,22.20
2018-06-04T07:21:49.507Z,22.30
2018-06-04T07:24:18.261Z,22.50
2018-06-04T07:26:46.866Z,22.80
2018-06-04T07:29:15.519Z,23.20
2018-06-04T07:31:44.202Z,23.40
2018-06-04T07:34:12.813Z,23.60
2018-06-04T07:36:41.479Z,23.50
2018-06-04T07:41:40.646Z,24.00
2018-06-04T07:44:09.340Z,24.10
2018-06-04T07:46:38.044Z,24.20
2018-06-04T07:49:06.710Z,24.10
2018-06-04T07:51:35.290Z,24.10
2018-06-04T07:54:03.953Z,24.40
2018-06-04T07:56:32.602Z,24.70
2018-06-04T08:01:29.524Z,25.30
2018-06-04T08:03:58.143Z,25.80
2018-06-04T08:06:26.936Z,26.20
2018-06-04T08:08:55.545Z,26.30
2018-06-04T08:11:24.226Z,26.30
2018-06-04T08:13:52.903Z,26.30
2018-06-04T08:16:21.570Z,26.40
2018-06-04T08:18:50.183Z,26.90
2018-06-04T08:21:18.930Z,27.20
2018-06-04T08:23:47.640Z,27.60
2018-06-04T08:26:16.464Z,27.80
2018-06-04T08:28:45.083Z,27.90
2018-06-04T08:31:13.735Z,28.00
2018-06-04T08:33:42.351Z,27.70
2018-06-04T08:36:13.490Z,27.60
2018-06-04T08:38:42.606Z,27.60
2018-06-04T08:41:12.314Z,27.80
2018-06-04T08:43:42.970Z,28.10
2018-06-04T08:46:15.229Z,28.40
2018-06-04T08:48:43.930Z,29.00
2018-06-04T08:51:12.545Z,29.30
2018-06-04T08:53:41.211Z,29.50
2018-06-04T08:56:09.865Z,29.90
2018-06-04T08:58:39.602Z,29.90
2018-06-04T09:01:08.212Z,30.40
2018-06-04T09:03:36.804Z,30.60
2018-06-04T09:06:05.459Z,30.50
2018-06-04T09:08:39.243Z,30.80
2018-06-04T09:11:07.900Z,30.90
2018-06-04T09:13:36.542Z,30.80
2018-06-04T09:16:05.236Z,31.00
2018-06-04T09:18:33.830Z,31.10
2018-06-04T09:21:02.528Z,31.30
2018-06-04T09:23:31.126Z,31.10
2018-06-04T09:25:59.761Z,30.90
2018-06-04T09:28:29.506Z,30.90
2018-06-04T09:30:58.129Z,31.40
2018-06-04T09:33:26.808Z,31.70
2018-06-04T09:35:55.510Z,31.90
2018-06-04T09:38:24.183Z,32.10
2018-06-04T09:40:52.870Z,32.00
2018-06-04T09:43:21.720Z,32.30
2018-06-04T09:45:50.437Z,32.70
2018-06-04T09:48:19.027Z,33.00
2018-06-04T09:50:47.781Z,33.30
2018-06-04T09:53:16.332Z,33.20
2018-06-04T09:55:45.170Z,32.80
2018-06-04T09:58:27.739Z,32.20
2018-06-04T10:00:56.367Z,32.20
2018-06-04T10:03:25.234Z,32.40
2018-06-04T10:05:53.950Z,32.60
2018-06-04T10:08:22.614Z,33.10
2018-06-04T10:10:51.604Z,33.50
2018-06-04T10:13:20.734Z,34.10
2018-06-04T10:15:49.344Z,34.20
2018-06-04T10:18:19.823Z,34.40
2018-06-04T10:20:50.612Z,34.30
2018-06-04T10:23:19.257Z,34.50
2018-06-04T10:25:48.203Z,34.90
2018-06-04T10:28:17.314Z,34.90
2018-06-04T10:30:46.008Z,35.00
2018-06-04T10:33:14.671Z,34.50
2018-06-04T10:35:43.271Z,34.90
2018-06-04T10:38:11.950Z,35.40
2018-06-04T10:40:40.614Z,35.70
2018-06-04T10:43:09.256Z,35.90
2018-06-04T10:45:37.869Z,36.30
2018-06-04T10:48:07.076Z,36.90
2018-06-04T10:50:35.655Z,37.30
2018-06-04T10:53:04.281Z,37.50
2018-06-04T10:55:32.890Z,37.10
2018-06-04T10:58:01.491Z,37.20
2018-06-04T11:00:30.116Z,37.10
2018-06-04T11:02:58.772Z,36.70
2018-06-04T11:05:27.450Z,36.00
2018-06-04T11:07:56.070Z,35.60
2018-06-04T11:10:29.664Z,35.30
2018-06-04T11:12:58.302Z,35.30
2018-06-04T11:15:26.891Z,35.80
2018-06-04T11:17:55.531Z,36.30
2018-06-04T11:20:24.205Z,36.40
2018-06-04T11:22:52.948Z,36.50
2018-06-04T11:25:25.907Z,36.40
2018-06-04T11:27:54.624Z,35.70
2018-06-04T11:30:23.228Z,35.80
2018-06-04T11:32:51.917Z,36.20
2018-06-04T11:35:20.569Z,36.10
2018-06-04T11:37:49.211Z,36.10
2018-06-04T11:40:19.897Z,36.00
2018-06-04T11:42:50.703Z,36.30
2018-06-04T11:45:19.536Z,36.30
2018-06-04T11:47:48.098Z,36.40
2018-06-04T11:50:16.677Z,35.60
2018-06-04T11:52:45.292Z,35.20
2018-06-04T11:55:14.202Z,34.90
2018-06-04T11:57:42.856Z,35.20
2018-06-04T12:00:11.422Z,35.40
2018-06-04T12:02:39.985Z,35.60
2018-06-04T12:05:09.661Z,36.00
2018-06-04T12:07:38.290Z,36.40
2018-06-04T12:10:06.962Z,36.20
2018-06-04T12:12:36.563Z,36.00
2018-06-04T12:15:05.232Z,36.10
2018-06-04T12:17:34.259Z,36.30
2018-06-04T12:20:02.964Z,36.50
2018-06-04T12:22:31.689Z,36.50
2018-06-04T12:25:02.373Z,36.60
2018-06-04T12:27:31.001Z,36.60
2018-06-04T12:29:59.634Z,36.60
2018-06-04T12:32:28.383Z,36.70
2018-06-04T12:34:57.398Z,36.90
2018-06-04T12:37:26.067Z,36.80
2018-06-04T12:39:54.783Z,36.60
2018-06-04T12:42:23.502Z,36.40
2018-06-04T12:44:52.149Z,36.50
2018-06-04T12:47:20.752Z,36.70
2018-06-04T12:49:49.705Z,37.20
2018-06-04T12:54:48.345Z,37.00
2018-06-04T12:57:16.939Z,36.90
2018-06-04T12:59:46.633Z,36.50
2018-06-04T13:02:15.701Z,35.90
2018-06-04T13:04:44.362Z,35.80
2018-06-04T13:07:14.027Z,35.90
2018-06-04T13:09:42.609Z,36.40
2018-06-04T13:12:11.287Z,36.90
2018-06-04T13:14:40.523Z,37.20
2018-06-04T13:17:09.163Z,36.70
2018-06-04T13:19:38.247Z,36.70
2018-06-04T13:22:09.085Z,37.00
2018-06-04T13:24:37.741Z,37.80
2018-06-04T13:27:06.350Z,38.50
2018-06-04T13:29:35.006Z,38.70
2018-06-04T13:32:03.562Z,38.90
2018-06-04T13:34:32.187Z,38.80
2018-06-04T13:37:01.115Z,38.70
2018-06-04T13:39:29.774Z,38.80
2018-06-04T13:42:04.686Z,39.30
2018-06-04T13:44:33.399Z,39.90
2018-06-04T13:47:02.290Z,40.40
2018-06-04T13:49:30.919Z,41.00
2018-06-04T13:52:07.393Z,42.00
2018-06-04T13:54:36.025Z,42.80
2018-06-04T13:57:04.778Z,43.80
2018-06-04T13:59:33.405Z,44.70
2018-06-04T14:02:02.021Z,44.90
2018-06-04T14:04:30.701Z,45.40
2018-06-04T14:07:03.644Z,45.20
2018-06-04T14:09:32.676Z,45.40
2018-06-04T14:12:23.120Z,45.60
2018-06-04T14:14:51.771Z,46.40
2018-06-04T14:17:20.501Z,46.20
2018-06-04T14:19:49.179Z,46.40
2018-06-04T14:22:17.915Z,46.40
2018-06-04T14:24:46.601Z,46.70
2018-06-04T14:27:15.201Z,47.20
2018-06-04T14:29:43.830Z,46.90
2018-06-04T14:32:12.532Z,47.30
2018-06-04T14:34:41.160Z,47.80
2018-06-04T14:37:09.766Z,47.70
2018-06-04T14:39:38.508Z,47.70
2018-06-04T14:42:07.202Z,47.40
2018-06-04T14:47:04.306Z,46.40
2018-06-04T14:49:32.917Z,46.80
2018-06-04T14:52:01.618Z,47.50
2018-06-04T14:54:30.263Z,48.00
2018-06-04T14:56:58.925Z,48.40
2018-06-04T14:59:27.597Z,49.10
2018-06-04T15:01:56.199Z,49.00
2018-06-04T15:04:25.233Z,48.60
2018-06-04T15:06:55.186Z,48.30
2018-06-04T15:09:23.958Z,47.80
2018-06-04T15:11:52.649Z,47.70
2018-06-04T15:16:50.690Z,48.20
2018-06-04T15:19:19.391Z,48.70
2018-06-04T15:21:48.049Z,48.80
2018-06-04T15:24:16.827Z,48.90
2018-06-04T15:26:46.076Z,48.90
2018-06-04T15:29:15.337Z,48.60
2018-06-04T15:31:44.300Z,48.60
2018-06-04T15:34:13.160Z,49.10
2018-06-04T15:39:10.643Z,49.70
2018-06-04T15:41:40.030Z,49.30
2018-06-04T15:44:08.731Z,48.60
2018-06-04T15:46:37.450Z,48.50
2018-06-04T15:49:06.315Z,48.30
2018-06-04T15:51:35.215Z,48.10
2018-06-04T15:54:03.994Z,47.80
2018-06-04T15:56:32.733Z,48.00
2018-06-04T15:59:01.422Z,47.80
2018-06-04T16:01:30.083Z,47.30
2018-06-04T16:03:58.750Z,47.40
2018-06-04T16:06:33.709Z,47.30
2018-06-04T16:09:02.550Z,47.10
2018-06-04T16:11:31.185Z,46.70
2018-06-04T16:13:59.872Z,46.50
2018-06-04T16:16:28.457Z,46.80
2018-06-04T16:18:57.114Z,46.40
2018-06-04T16:21:25.669Z,45.70
2018-06-04T16:23:54.311Z,45.90
2018-06-04T16:26:22.863Z,46.30
2018-06-04T16:28:51.539Z,46.70
2018-06-04T16:31:20.134Z,46.30
2018-06-04T16:33:48.898Z,45.70
2018-06-04T16:36:17.580Z,45.80
2018-06-04T16:38:46.288Z,46.00
2018-06-04T16:41:14.901Z,45.70
2018-06-04T16:43:43.800Z,45.40
2018-06-04T16:46:12.388Z,45.40
2018-06-04T16:48:41.080Z,45.70
2018-06-04T16:51:09.734Z,45.70
2018-06-04T16:53:38.286Z,45.60
2018-06-04T16:56:06.963Z,45.40
2018-06-04T16:58:35.545Z,45.00
2018-06-04T17:01:04.677Z,44.30
2018-06-04T17:03:33.373Z,43.80
2018-06-04T17:06:02.049Z,43.40
2018-06-04T17:08:30.703Z,43.00
2018-06-04T17:11:00.542Z,42.80
2018-06-04T17:13:29.207Z,42.70
2018-06-04T17:15:57.981Z,42.40
2018-06-04T17:18:26.614Z,42.30
2018-06-04T17:20:55.271Z,42.20
2018-06-04T17:23:23.951Z,41.70
2018-06-04T17:25:52.578Z,41.30
2018-06-04T17:30:49.495Z,40.60
2018-06-04T17:33:18.144Z,40.60
2018-06-04T17:35:46.848Z,40.50
2018-06-04T17:38:15.565Z,40.30
2018-06-04T17:40:44.168Z,40.00
2018-06-04T17:43:13.483Z,39.80
2018-06-04T17:45:42.205Z,39.60
2018-06-04T17:48:12.252Z,39.70
2018-06-04T17:50:42.601Z,39.60
2018-06-04T17:53:13.538Z,39.60
2018-06-04T17:55:43.479Z,39.50
2018-06-04T17:58:13.756Z,39.40
2018-06-04T18:00:42.472Z,39.00
2018-06-04T18:03:11.479Z,38.50
2018-06-04T18:05:40.306Z,38.10
2018-06-04T18:08:09.009Z,37.50
2018-06-04T18:10:37.614Z,36.50
2018-06-04T18:13:06.301Z,35.60
2018-06-04T18:15:34.920Z,34.60
2018-06-04T18:18:03.690Z,33.70
2018-06-04T18:20:32.376Z,32.90
2018-06-04T18:23:01.155Z,32.10
2018-06-04T18:25:29.791Z,31.70
2018-06-04T18:27:59.098Z,31.30
2018-06-04T18:30:29.430Z,31.30
2018-06-04T18:32:58.106Z,31.30
2018-06-04T18:35:28.482Z,31.10
2018-06-04T18:37:57.194Z,30.80
2018-06-04T18:40:25.960Z,30.10
2018-06-04T18:42:55.170Z,29.40
2018-06-04T18:45:23.813Z,28.90
2018-06-04T18:47:52.537Z,28.40
2018-06-04T18:50:22.533Z,27.90
2018-06-04T18:52:51.091Z,27.60
2018-06-04T18:55:20.019Z,27.20
2018-06-04T18:57:49.730Z,27.00
2018-06-04T19:00:18.376Z,26.80
2018-06-04T19:02:47.079Z,26.70
2018-06-04T19:05:16.047Z,26.60
2018-06-04T19:07:46.094Z,26.60
2018-06-04T19:10:15.474Z,26.50
2018-06-04T19:12:44.630Z,26.40
2018-06-04T19:15:13.934Z,26.30
2018-06-04T19:17:42.785Z,26.20
2018-06-04T19:20:11.938Z,26.00
2018-06-04T19:22:40.628Z,25.90
2018-06-04T19:25:09.634Z,25.80
2018-06-04T19:27:38.358Z,25.50
2018-06-04T19:30:07.091Z,25.20
2018-06-04T19:32:35.782Z,24.80
2018-06-04T19:35:04.511Z,24.40
2018-06-04T19:37:33.953Z,24.20
2018-06-04T19:40:04.391Z,23.90
2018-06-04T19:42:34.787Z,23.80
2018-06-04T19:45:03.613Z,23.70
2018-06-04T19:47:33.012Z,23.70
2018-06-04T19:50:01.824Z,23.70
2018-06-04T19:52:30.512Z,23.60
2018-06-04T19:54:59.155Z,23.50
2018-06-04T19:57:27.859Z,23.40
2018-06-04T19:59:56.962Z,23.20
2018-06-04T20:02:25.655Z,23.10
2018-06-04T20:04:54.414Z,23.00
2018-06-04T20:07:24.456Z,22.90
2018-06-04T20:09:58.810Z,22.90
2018-06-04T20:12:27.595Z,22.80
2018-06-04T20:14:56.369Z,22.80
2018-06-04T20:17:25.122Z,22.70
2018-06-04T20:19:53.846Z,22.70
2018-06-04T20:22:22.451Z,22.50
2018-06-04T20:24:51.181Z,22.40
2018-06-04T20:27:19.774Z,22.30
2018-06-04T20:29:48.424Z,22.20
2018-06-04T20:32:17.158Z,22.10
2018-06-04T20:34:45.929Z,22.00
2018-06-04T20:37:14.617Z,21.80
2018-06-04T20:39:43.318Z,21.70
2018-06-04T20:42:11.970Z,21.60
2018-06-04T20:44:40.702Z,21.50
2018-06-04T20:47:09.409Z,21.40
2018-06-04T20:49:38.077Z,21.30
2018-06-04T20:52:07.045Z,21.20
2018-06-04T20:54:35.772Z,21.10
2018-06-04T20:57:04.490Z,21.00
2018-06-04T20:59:33.247Z,20.80
2018-06-04T21:02:01.862Z,20.70
2018-06-04T21:04:30.557Z,20.60
2018-06-04T21:06:59.244Z,20.60
2018-06-04T21:09:27.844Z,20.60
2018-06-04T21:11:56.583Z,20.60
2018-06-04T21:14:25.349Z,20.50
2018-06-04T21:16:54.171Z,20.40
2018-06-04T21:19:22.978Z,20.40
2018-06-04T21:21:51.844Z,20.30
2018-06-04T21:24:20.545Z,20.20
2018-06-04T21:26:49.221Z,20.10
2018-06-04T21:29:17.870Z,20.00
2018-06-04T21:31:46.584Z,20.00
2018-06-04T21:34:15.293Z,19.90
2018-06-04T21:36:43.915Z,19.80
2018-06-04T21:41:40.953Z,19.80
2018-06-04T21:44:09.717Z,19.70
2018-06-04T21:46:38.418Z,19.70
2018-06-04T21:49:07.083Z,19.60
2018-06-04T21:51:35.728Z,19.60
2018-06-04T21:54:04.359Z,19.60
2018-06-04T21:56:33.210Z,19.60
2018-06-04T21:59:01.924Z,19.50
2018-06-04T22:01:30.602Z,19.40
2018-06-04T22:03:59.275Z,19.30
2018-06-04T22:06:27.990Z,19.20
2018-06-04T22:08:56.671Z,19.10
2018-06-04T22:11:25.482Z,19.10
2018-06-04T22:13:54.185Z,19.00
2018-06-04T22:16:22.928Z,18.90
2018-06-04T22:18:51.606Z,18.80
2018-06-04T22:21:20.268Z,18.80
2018-06-04T22:23:48.957Z,18.70
2018-06-04T22:26:18.039Z,18.70
2018-06-04T22:28:46.722Z,18.60
2018-06-04T22:31:15.453Z,18.50
2018-06-04T22:33:44.138Z,18.50
2018-06-04T22:36:12.820Z,18.50
2018-06-04T22:38:41.683Z,18.50
2018-06-04T22:41:10.396Z,18.50
2018-06-04T22:43:39.159Z,18.40
2018-06-04T22:46:07.833Z,18.40
2018-06-04T22:48:36.603Z,18.40
2018-06-04T22:51:05.208Z,18.50
2018-06-04T22:53:33.970Z,18.40
2018-06-04T22:56:02.690Z,18.40
2018-06-04T22:58:31.310Z,18.30
2018-06-04T23:00:59.929Z,18.20
2018-06-04T23:03:28.645Z,18.20
2018-06-04T23:05:57.462Z,18.20
2018-06-04T23:08:26.121Z,18.10
2018-06-04T23:10:55.740Z,18.10
2018-06-04T23:13:24.366Z,18.10
2018-06-04T23:15:52.937Z,18.00
2018-06-04T23:18:21.618Z,18.00
2018-06-04T23:20:50.309Z,17.90
2018-06-04T23:23:18.998Z,17.80
2018-06-04T23:25:47.641Z,17.70
2018-06-04T23:28:16.356Z,17.70
2018-06-04T23:33:13.204Z,17.50
2018-06-04T23:35:41.932Z,17.60
2018-06-04T23:38:10.597Z,17.50
2018-06-04T23:40:39.232Z,17.50
2018-06-04T23:43:07.990Z,17.50
2018-06-04T23:45:36.781Z,17.40
2018-06-04T23:48:05.614Z,17.40
2018-06-04T23:50:34.361Z,17.30
2018-06-04T23:53:02.970Z,17.30
2018-06-04T23:55:31.647Z,17.30
2018-06-04T23:58:00.281Z,17.30
